createdAt,value
2018-09-05T00:02:21.621Z,12.30
2018-09-05T00:04:47.594Z,11.43
2018-09-05T00:07:13.676Z,13.90
2018-09-05T00:09:39.650Z,11.70
2018-09-05T00:12:06.385Z,10.17
2018-09-05T00:14:32.402Z,11.47
2018-09-05T00:16:59.145Z,11.20
2018-09-05T00:19:25.854Z,10.57
2018-09-05T00:21:51.862Z,9.23
2018-09-05T00:24:17.824Z,9.17
2018-09-05T00:26:44.531Z,10.67
2018-09-05T00:29:10.529Z,11.47
2018-09-05T00:31:36.506Z,10.53
2018-09-05T00:34:02.510Z,10.47
2018-09-05T00:36:28.511Z,7.73
2018-09-05T00:38:54.511Z,8.87
2018-09-05T00:41:20.473Z,7.93
2018-09-05T00:43:46.481Z,8.43
2018-09-05T00:46:12.449Z,7.67
2018-09-05T00:48:38.448Z,6.87
2018-09-05T00:51:05.188Z,7.90
2018-09-05T00:53:31.191Z,8.70
2018-09-05T00:55:57.178Z,6.87
2018-09-05T00:58:23.209Z,9.23
2018-09-05T01:00:49.167Z,7.87
2018-09-05T01:03:15.184Z,7.30
2018-09-05T01:05:41.132Z,9.30
2018-09-05T01:08:07.133Z,9.43
2018-09-05T01:10:33.104Z,10.67
2018-09-05T01:12:59.840Z,8.63
2018-09-05T01:15:26.555Z,7.40
2018-09-05T01:17:52.566Z,8.17
2018-09-05T01:20:18.570Z,6.80
2018-09-05T01:22:44.575Z,9.67
2018-09-05T01:25:10.553Z,9.30
2018-09-05T01:27:36.558Z,8.17
2018-09-05T01:30:02.567Z,7.20
2018-09-05T01:32:28.541Z,8.73
2018-09-05T01:34:55.277Z,8.00
2018-09-05T01:37:21.231Z,8.33
2018-09-05T01:39:47.226Z,8.17
2018-09-05T01:42:13.196Z,6.50
2018-09-05T01:44:39.365Z,7.90
2018-09-05T01:47:05.381Z,7.73
2018-09-05T01:49:31.385Z,11.47
2018-09-05T01:51:57.374Z,7.23
2018-09-05T01:54:23.377Z,7.97
2018-09-05T01:56:49.322Z,7.60
2018-09-05T01:59:15.332Z,6.47
2018-09-05T02:01:41.294Z,8.37
2018-09-05T02:04:07.295Z,7.53
2018-09-05T02:06:33.239Z,9.10
2018-09-05T02:08:59.283Z,7.93
2018-09-05T02:11:25.246Z,11.30
2018-09-05T02:13:51.999Z,9.40
2018-09-05T02:16:17.965Z,8.43
2018-09-05T02:18:43.973Z,9.13
2018-09-05T02:21:09.933Z,8.97
2018-09-05T02:23:35.891Z,7.00
2018-09-05T02:26:01.879Z,8.63
2018-09-05T02:28:27.906Z,8.20
2018-09-05T02:30:53.890Z,9.33
2018-09-05T02:33:19.832Z,8.00
2018-09-05T02:35:45.834Z,8.57
2018-09-05T02:38:12.395Z,8.70
2018-09-05T02:40:38.423Z,10.47
2018-09-05T02:43:04.399Z,10.13
2018-09-05T02:45:30.429Z,9.60
2018-09-05T02:47:56.446Z,9.47
2018-09-05T02:50:22.451Z,8.27
2018-09-05T02:52:49.156Z,8.07
2018-09-05T02:55:15.157Z,8.63
2018-09-05T02:57:41.124Z,8.97
2018-09-05T03:00:07.084Z,6.57
2018-09-05T03:02:33.088Z,8.47
2018-09-05T03:04:59.785Z,9.30
2018-09-05T03:07:25.787Z,9.40
2018-09-05T03:09:51.789Z,13.80
2018-09-05T03:12:17.814Z,7.77
2018-09-05T03:14:43.787Z,9.33
2018-09-05T03:17:09.824Z,10.23
2018-09-05T03:19:35.826Z,12.50
2018-09-05T03:22:01.792Z,7.20
2018-09-05T03:24:27.777Z,7.47
2018-09-05T03:26:53.773Z,8.67
2018-09-05T03:29:19.764Z,11.50
2018-09-05T03:31:45.725Z,8.83
2018-09-05T03:34:11.719Z,7.80
2018-09-05T03:36:37.669Z,10.17
2018-09-05T03:39:03.738Z,12.30
2018-09-05T03:41:29.711Z,12.13
2018-09-05T03:43:55.698Z,8.53
2018-09-05T03:46:21.736Z,9.10
2018-09-05T03:48:47.739Z,8.37
2018-09-05T03:51:13.735Z,9.33
2018-09-05T03:53:39.697Z,11.43
2018-09-05T03:56:06.428Z,7.47
2018-09-05T03:58:33.116Z,8.83
2018-09-05T04:00:59.130Z,9.87
2018-09-05T04:03:25.130Z,11.03
2018-09-05T04:05:51.127Z,9.47
2018-09-05T04:08:17.849Z,11.27
2018-09-05T04:10:43.820Z,10.53
2018-09-05T04:13:09.828Z,9.83
2018-09-05T04:15:36.534Z,10.63
2018-09-05T04:18:02.527Z,10.00
2018-09-05T04:20:28.483Z,11.63
2018-09-05T04:22:54.479Z,11.37
2018-09-05T04:25:20.436Z,10.27
2018-09-05T04:27:46.427Z,13.10
2018-09-05T04:30:12.409Z,10.43
2018-09-05T04:32:39.143Z,10.00
2018-09-05T04:35:05.908Z,9.00
2018-09-05T04:37:31.912Z,10.63
2018-09-05T04:39:57.871Z,11.70
2018-09-05T04:42:23.834Z,11.00
2018-09-05T04:44:49.806Z,13.13
2018-09-05T04:47:16.503Z,12.47
2018-09-05T04:49:43.257Z,12.07
2018-09-05T04:52:09.249Z,13.43
2018-09-05T04:54:35.259Z,13.87
2018-09-05T04:57:01.216Z,11.57
2018-09-05T04:59:27.928Z,11.07
2018-09-05T05:01:53.900Z,10.47
2018-09-05T05:04:19.898Z,14.77
2018-09-05T05:06:46.621Z,13.10
2018-09-05T05:09:12.589Z,11.33
2018-09-05T05:11:38.630Z,13.27
2018-09-05T05:14:04.664Z,14.07
2018-09-05T05:16:31.486Z,11.77
2018-09-05T05:18:57.534Z,12.30
2018-09-05T05:21:23.614Z,11.53
2018-09-05T05:23:49.658Z,11.40
2018-09-05T05:26:15.728Z,12.47
2018-09-05T05:28:42.210Z,13.23
2018-09-05T05:31:08.276Z,11.37
2018-09-05T05:33:35.045Z,15.47
2018-09-05T05:36:01.825Z,13.57
2018-09-05T05:38:27.843Z,13.27
2018-09-05T05:40:53.856Z,14.17
2018-09-05T05:43:19.877Z,16.13
2018-09-05T05:45:45.884Z,14.73
2018-09-05T05:48:12.644Z,12.47
2018-09-05T05:50:38.632Z,13.40
2018-09-05T05:53:04.659Z,12.47
2018-09-05T05:55:30.659Z,16.17
2018-09-05T05:57:56.707Z,11.80
2018-09-05T06:00:23.467Z,13.57
2018-09-05T06:02:50.223Z,13.77
2018-09-05T06:05:16.947Z,15.97
2018-09-05T06:07:42.971Z,14.07
2018-09-05T06:10:08.970Z,14.87
2018-09-05T06:12:35.002Z,11.73
2018-09-05T06:15:01.105Z,15.43
2018-09-05T06:17:27.435Z,9.57
2018-09-05T06:19:53.535Z,11.80
2018-09-05T06:22:20.468Z,12.77
2018-09-05T06:24:46.563Z,12.93
2018-09-05T06:27:12.750Z,13.50
2018-09-05T06:29:38.844Z,11.40
2018-09-05T06:32:04.919Z,13.87
2018-09-05T06:34:31.808Z,15.40
2018-09-05T06:36:58.140Z,12.63
2018-09-05T06:39:24.192Z,11.67
2018-09-05T06:41:50.215Z,11.67
2018-09-05T06:44:16.250Z,9.83
2018-09-05T06:46:43.043Z,10.97
2018-09-05T06:49:09.122Z,11.63
2018-09-05T06:51:35.134Z,10.07
2018-09-05T06:54:01.265Z,11.57
2018-09-05T06:56:28.242Z,8.97
2018-09-05T06:58:54.296Z,11.37
2018-09-05T07:01:20.341Z,11.27
2018-09-05T07:03:46.404Z,10.13
2018-09-05T07:06:12.370Z,8.63
2018-09-05T07:08:38.442Z,8.20
2018-09-05T07:11:04.433Z,8.87
2018-09-05T07:13:30.431Z,10.50
2018-09-05T07:15:56.495Z,9.73
2018-09-05T07:18:24.540Z,8.47
2018-09-05T07:20:50.812Z,8.63
2018-09-05T07:23:16.872Z,8.80
2018-09-05T07:25:43.681Z,9.13
2018-09-05T07:28:09.807Z,8.17
2018-09-05T07:30:36.612Z,7.13
2018-09-05T07:33:02.626Z,10.90
2018-09-05T07:35:28.719Z,7.37
2018-09-05T07:37:54.714Z,8.10
2018-09-05T07:40:20.898Z,7.53
2018-09-05T07:42:46.945Z,8.83
2018-09-05T07:45:12.945Z,9.60
2018-09-05T07:47:38.967Z,8.10
2018-09-05T07:50:07.998Z,7.87
2018-09-05T07:52:35.051Z,8.37
2018-09-05T07:55:01.236Z,8.80
2018-09-05T07:57:29.163Z,7.82
2018-09-05T07:59:56.352Z,7.82
2018-09-05T08:02:22.478Z,7.80
2018-09-05T08:04:48.704Z,7.73
2018-09-05T08:07:14.946Z,7.60
2018-09-05T08:09:41.095Z,7.17
2018-09-05T08:12:08.005Z,6.57
2018-09-05T08:14:34.106Z,9.82
2018-09-05T08:17:01.820Z,5.97
2018-09-05T08:19:33.086Z,6.68
2018-09-05T08:21:59.737Z,6.20
2018-09-05T08:24:25.781Z,6.70
2018-09-05T08:29:29.027Z,7.03
2018-09-05T08:31:56.022Z,6.03
2018-09-05T08:34:24.141Z,7.55
2018-09-05T08:36:54.228Z,6.78
2018-09-05T08:39:23.755Z,9.05
2018-09-05T08:41:53.382Z,6.47
2018-09-05T08:44:22.509Z,6.90
2018-09-05T08:46:50.809Z,7.05
2018-09-05T08:49:16.907Z,9.63
2018-09-05T08:51:42.996Z,6.07
2018-09-05T08:54:10.146Z,7.62
2018-09-05T08:56:36.441Z,5.85
2018-09-05T08:59:02.499Z,4.55
2018-09-05T09:01:28.508Z,6.20
2018-09-05T09:03:55.362Z,7.65
2018-09-05T09:06:22.194Z,6.78
2018-09-05T09:08:48.450Z,4.95
2018-09-05T09:11:16.474Z,6.03
2018-09-05T09:16:16.982Z,6.43
2018-09-05T09:18:53.049Z,5.87
2018-09-05T09:21:19.170Z,5.72
2018-09-05T09:26:28.916Z,6.10
2018-09-05T09:29:02.171Z,4.93
2018-09-05T09:31:33.341Z,4.12
2018-09-05T09:34:20.157Z,4.05
2018-09-05T09:42:14.450Z,3.92
2018-09-05T09:44:41.266Z,3.97
2018-09-05T09:47:07.280Z,3.45
2018-09-05T09:49:34.441Z,4.82
2018-09-05T09:52:01.647Z,4.30
2018-09-05T09:54:28.339Z,3.42
2018-09-05T09:56:54.361Z,4.97
2018-09-05T09:59:20.338Z,4.50
2018-09-05T10:01:47.495Z,5.80
2018-09-05T10:04:16.520Z,4.07
2018-09-05T10:06:43.701Z,3.57
2018-09-05T10:09:13.570Z,5.10
2018-09-05T10:11:39.650Z,4.60
2018-09-05T10:14:05.664Z,2.43
2018-09-05T10:16:31.643Z,3.87
2018-09-05T10:18:57.665Z,5.20
2018-09-05T10:21:23.739Z,2.63
2018-09-05T10:23:49.808Z,3.37
2018-09-05T10:26:17.711Z,3.87
2018-09-05T10:28:43.858Z,5.33
2018-09-05T10:31:11.449Z,4.83
2018-09-05T10:33:37.477Z,3.10
2018-09-05T10:36:03.515Z,3.90
2018-09-05T10:38:29.545Z,3.27
2018-09-05T10:40:55.614Z,3.53
2018-09-05T10:43:21.661Z,4.47
2018-09-05T10:45:48.456Z,4.00
2018-09-05T10:48:14.547Z,5.40
2018-09-05T10:50:40.595Z,4.10
2018-09-05T10:53:06.629Z,8.20
2018-09-05T10:55:32.763Z,5.47
2018-09-05T10:57:59.585Z,4.17
2018-09-05T11:00:25.646Z,3.50
2018-09-05T11:02:51.649Z,5.10
2018-09-05T11:05:17.650Z,7.10
2018-09-05T11:07:43.653Z,3.57
2018-09-05T11:10:10.383Z,4.40
2018-09-05T11:12:36.401Z,3.13
2018-09-05T11:15:03.165Z,4.63
2018-09-05T11:17:29.157Z,3.10
2018-09-05T11:19:56.192Z,5.43
2018-09-05T11:22:22.940Z,4.67
2018-09-05T11:24:48.928Z,3.90
2018-09-05T11:27:14.921Z,4.03
2018-09-05T11:29:41.698Z,3.80
2018-09-05T11:32:08.733Z,4.83
2018-09-05T11:34:34.723Z,3.73
2018-09-05T11:37:01.485Z,3.43
2018-09-05T11:39:27.529Z,3.60
2018-09-05T11:41:53.532Z,3.60
2018-09-05T11:44:19.585Z,3.27
2018-09-05T11:46:45.632Z,4.50
2018-09-05T11:49:11.652Z,4.20
2018-09-05T11:51:37.642Z,4.13
2018-09-05T11:54:03.641Z,4.77
2018-09-05T11:56:29.657Z,5.43
2018-09-05T11:58:55.689Z,3.87
2018-09-05T12:01:21.697Z,4.80
2018-09-05T12:03:48.477Z,3.27
2018-09-05T12:06:14.520Z,4.30
2018-09-05T12:08:40.546Z,3.53
2018-09-05T12:11:06.562Z,4.37
2018-09-05T12:13:32.605Z,4.23
2018-09-05T12:15:58.619Z,3.97
2018-09-05T12:18:25.441Z,3.60
2018-09-05T12:20:53.340Z,4.83
2018-09-05T12:23:19.680Z,3.97
2018-09-05T12:25:47.708Z,3.80
2018-09-05T12:28:15.160Z,5.33
2018-09-05T12:30:41.221Z,4.00
2018-09-05T12:33:07.419Z,5.33
2018-09-05T12:35:33.469Z,3.60
2018-09-05T12:38:00.526Z,3.73
2018-09-05T12:40:29.038Z,4.83
2018-09-05T12:42:56.385Z,6.43
2018-09-05T12:45:23.139Z,3.50
2018-09-05T12:47:49.185Z,3.30
2018-09-05T12:50:15.307Z,3.60
2018-09-05T12:52:41.660Z,5.70
2018-09-05T12:55:07.698Z,3.57
2018-09-05T12:57:33.744Z,3.67
2018-09-05T12:59:59.759Z,3.13
2018-09-05T13:02:25.733Z,3.63
2018-09-05T13:04:51.805Z,3.73
2018-09-05T13:07:17.811Z,5.80
2018-09-05T13:09:43.816Z,3.53
2018-09-05T13:12:09.870Z,2.90
2018-09-05T13:14:35.917Z,4.50
2018-09-05T13:17:01.995Z,2.83
2018-09-05T13:19:27.967Z,3.47
2018-09-05T13:21:53.988Z,8.50
2018-09-05T13:24:20.042Z,3.23
2018-09-05T13:26:46.957Z,4.90
2018-09-05T13:29:12.954Z,3.37
2018-09-05T13:31:38.991Z,3.63
2018-09-05T13:34:05.031Z,5.07
2018-09-05T13:36:31.076Z,3.33
2018-09-05T13:38:57.053Z,4.50
2018-09-05T13:41:23.071Z,3.87
2018-09-05T13:43:49.071Z,3.63
2018-09-05T13:46:15.111Z,6.67
2018-09-05T13:48:41.163Z,4.03
2018-09-05T13:51:07.168Z,3.00
2018-09-05T13:53:33.217Z,3.77
2018-09-05T13:55:59.182Z,3.47
2018-09-05T13:58:25.231Z,3.27
2018-09-05T14:00:51.299Z,3.73
2018-09-05T14:03:17.383Z,6.73
2018-09-05T14:05:43.389Z,5.80
2018-09-05T14:08:12.218Z,3.73
2018-09-05T14:10:38.900Z,3.20
2018-09-05T14:13:05.193Z,3.60
2018-09-05T14:15:31.288Z,2.93
2018-09-05T14:17:57.323Z,3.00
2018-09-05T14:20:23.895Z,2.63
2018-09-05T14:22:50.090Z,2.90
2018-09-05T14:25:16.156Z,2.40
2018-09-05T14:27:42.144Z,2.70
2018-09-05T14:30:08.194Z,2.23
2018-09-05T14:32:34.272Z,5.97
2018-09-05T14:35:00.313Z,2.13
2018-09-05T14:37:26.392Z,3.73
2018-09-05T14:39:53.180Z,3.77
2018-09-05T14:42:19.239Z,2.83
2018-09-05T14:44:48.322Z,2.47
2018-09-05T14:47:14.625Z,3.23
2018-09-05T14:49:40.800Z,3.03
2018-09-05T14:52:06.971Z,3.50
2018-09-05T14:54:33.699Z,5.23
2018-09-05T14:56:59.719Z,3.00
2018-09-05T14:59:25.702Z,5.47
2018-09-05T15:01:51.740Z,2.60
2018-09-05T15:04:17.743Z,2.57
2018-09-05T15:06:43.779Z,2.23
2018-09-05T15:09:09.807Z,2.57
2018-09-05T15:11:35.982Z,2.53
2018-09-05T15:14:02.013Z,2.70
2018-09-05T15:16:27.996Z,2.67
2018-09-05T15:18:54.949Z,3.33
2018-09-05T15:21:24.371Z,2.40
2018-09-05T15:23:50.421Z,2.70
2018-09-05T15:26:16.450Z,4.10
2018-09-05T15:28:43.285Z,3.40
2018-09-05T15:31:09.338Z,2.47
2018-09-05T15:33:36.858Z,3.20
2018-09-05T15:36:02.991Z,2.27
2018-09-05T15:38:29.144Z,2.70
2018-09-05T15:40:55.167Z,2.53
2018-09-05T15:43:22.077Z,3.00
2018-09-05T15:45:48.236Z,3.53
2018-09-05T15:48:15.389Z,2.63
2018-09-05T15:50:42.178Z,2.50
2018-09-05T15:53:08.209Z,2.93
2018-09-05T15:55:34.261Z,2.93
2018-09-05T16:00:32.505Z,3.97
2018-09-05T16:02:58.450Z,4.00
2018-09-05T16:05:24.423Z,2.83
2018-09-05T16:07:50.401Z,2.83
2018-09-05T16:10:16.383Z,3.17
2018-09-05T16:12:42.369Z,3.50
2018-09-05T16:15:09.175Z,5.23
2018-09-05T16:17:35.137Z,3.03
2018-09-05T16:20:01.896Z,3.73
2018-09-05T16:22:27.897Z,3.20
2018-09-05T16:24:53.918Z,2.77
2018-09-05T16:27:19.926Z,4.73
2018-09-05T16:29:45.978Z,4.30
2018-09-05T16:32:11.977Z,3.87
2018-09-05T16:34:37.965Z,4.57
2018-09-05T16:37:03.973Z,3.83
2018-09-05T16:39:29.938Z,2.90
2018-09-05T16:41:55.885Z,6.00
2018-09-05T16:44:21.901Z,4.80
2018-09-05T16:46:47.892Z,3.60
2018-09-05T16:49:13.908Z,3.33
2018-09-05T16:51:39.896Z,3.80
2018-09-05T16:54:05.867Z,4.63
2018-09-05T16:56:31.844Z,4.33
2018-09-05T16:58:58.552Z,3.07
2018-09-05T17:01:24.527Z,6.50
2018-09-05T17:03:51.239Z,4.43
2018-09-05T17:06:17.228Z,3.57
2018-09-05T17:08:43.217Z,3.93
2018-09-05T17:11:09.278Z,3.27
2018-09-05T17:13:35.916Z,3.10
2018-09-05T17:16:01.915Z,4.90
2018-09-05T17:18:27.907Z,5.47
2018-09-05T17:20:53.920Z,2.83
2018-09-05T17:23:19.931Z,3.00
2018-09-05T17:25:45.916Z,5.67
2018-09-05T17:28:11.884Z,3.50
2018-09-05T17:30:37.833Z,3.23
2018-09-05T17:33:03.819Z,2.93
2018-09-05T17:35:29.778Z,3.00
2018-09-05T17:37:55.861Z,3.73
2018-09-05T17:40:21.849Z,2.63
2018-09-05T17:42:47.844Z,3.53
2018-09-05T17:45:13.820Z,2.87
2018-09-05T17:47:39.819Z,3.83
2018-09-05T17:50:05.787Z,4.73
2018-09-05T18:36:24.523Z,3.60
2018-09-05T18:38:50.826Z,3.50
2018-09-05T18:41:17.105Z,4.27
2018-09-05T18:43:43.489Z,3.97
2018-09-05T18:46:09.632Z,3.57
2018-09-05T18:48:35.911Z,6.93
2018-09-05T18:51:02.083Z,4.10
2018-09-05T18:53:28.300Z,8.10
2018-09-05T18:55:54.470Z,4.27
2018-09-05T18:58:20.581Z,3.87
2018-09-05T19:00:54.061Z,3.37
2018-09-05T19:03:25.914Z,3.53
2018-09-05T19:05:54.312Z,4.20
2018-09-05T19:08:30.322Z,2.77
2018-09-05T19:10:59.636Z,5.63
2018-09-05T19:13:25.816Z,4.50
2018-09-05T19:15:55.008Z,3.13
2018-09-05T19:18:27.234Z,4.87
2018-09-05T19:23:30.437Z,6.90
2018-09-05T19:25:59.195Z,3.97
2018-09-05T19:28:26.265Z,3.87
2018-09-05T19:30:52.424Z,4.80
2018-09-05T19:33:18.647Z,4.83
2018-09-05T19:35:45.700Z,4.23
2018-09-05T19:38:11.763Z,5.13
2018-09-05T19:46:02.379Z,4.93
2018-09-05T19:48:30.390Z,4.93
2018-09-05T19:50:57.425Z,4.20
2018-09-05T19:53:27.820Z,4.83
2018-09-05T19:55:59.018Z,3.93
2018-09-05T19:58:25.800Z,5.93
2018-09-05T20:00:58.457Z,5.27
2018-09-05T20:03:25.355Z,6.70
2018-09-05T20:05:55.147Z,4.73
2018-09-05T20:08:22.202Z,5.03
2018-09-05T20:10:49.703Z,5.03
2018-09-05T20:13:19.028Z,4.57
2018-09-05T20:15:45.185Z,5.60
2018-09-05T20:18:13.967Z,6.40
2018-09-05T20:20:40.683Z,5.30
2018-09-05T20:23:08.415Z,5.63
2018-09-05T20:25:42.912Z,3.00
2018-09-05T20:28:14.562Z,4.53
2018-09-05T20:30:42.376Z,3.53
2018-09-05T20:33:12.809Z,4.30
2018-09-05T20:35:38.971Z,3.97
2018-09-05T20:38:05.131Z,5.17
2018-09-05T20:40:34.564Z,3.97
2018-09-05T20:43:01.627Z,4.37
2018-09-05T20:45:27.709Z,5.40
2018-09-05T20:47:53.811Z,4.23
2018-09-05T20:50:19.892Z,4.67
2018-09-05T20:52:48.528Z,4.60
2018-09-05T20:55:16.427Z,5.83
2018-09-05T20:57:42.529Z,3.73
2018-09-05T21:00:08.647Z,5.63
2018-09-05T21:02:35.144Z,5.40
2018-09-05T21:05:05.216Z,4.50
2018-09-05T21:07:48.231Z,5.40
2018-09-05T21:10:19.784Z,5.43
2018-09-05T21:12:51.840Z,5.07
2018-09-05T21:15:19.929Z,4.73
2018-09-05T21:17:46.028Z,4.73
2018-09-05T21:20:12.095Z,6.50
2018-09-05T21:22:38.996Z,5.27
2018-09-05T21:25:05.987Z,5.10
2018-09-05T21:27:32.015Z,4.97
2018-09-05T21:29:58.782Z,5.50
2018-09-05T21:32:25.596Z,5.40
2018-09-05T21:34:51.927Z,6.57
2018-09-05T21:37:18.728Z,5.80
2018-09-05T21:39:44.806Z,7.60
2018-09-05T21:42:10.797Z,4.50
2018-09-05T21:44:36.838Z,5.80
2018-09-05T21:47:02.826Z,5.97
2018-09-05T21:49:28.868Z,6.53
2018-09-05T21:51:54.853Z,7.27
2018-09-05T21:54:20.862Z,7.10
2018-09-05T21:56:46.928Z,6.10
2018-09-05T21:59:12.928Z,8.90
2018-09-05T22:01:38.957Z,5.57
2018-09-05T22:04:04.938Z,7.17
2018-09-05T22:06:30.941Z,6.80
2018-09-05T22:08:56.976Z,5.37
2018-09-05T22:11:23.065Z,7.07
2018-09-05T22:13:49.268Z,8.20
2018-09-05T22:16:16.004Z,12.17
2018-09-05T22:18:42.752Z,6.07
2018-09-05T22:21:08.803Z,8.27
2018-09-05T22:23:34.846Z,8.30
2018-09-05T22:26:01.641Z,7.03
2018-09-05T22:28:27.661Z,9.27
2018-09-05T22:30:53.697Z,8.00
2018-09-05T22:33:19.745Z,8.90
2018-09-05T22:35:46.196Z,9.93
2018-09-05T22:38:12.250Z,11.53
2018-09-05T22:40:39.044Z,10.80
2018-09-05T22:43:05.149Z,9.13
2018-09-05T22:45:31.265Z,9.97
2018-09-05T22:47:57.346Z,10.13
2018-09-05T22:50:23.433Z,10.67
2018-09-05T22:52:49.528Z,13.70
2018-09-05T22:55:15.518Z,10.83
2018-09-05T22:57:41.603Z,9.23
2018-09-05T23:00:07.628Z,10.00
2018-09-05T23:02:33.712Z,11.87
2018-09-05T23:04:59.734Z,10.17
2018-09-05T23:07:25.850Z,10.23
2018-09-05T23:09:51.846Z,9.90
2018-09-05T23:12:18.561Z,10.07
2018-09-05T23:14:44.598Z,10.87
2018-09-05T23:17:10.615Z,11.80
2018-09-05T23:19:36.629Z,15.33
2018-09-05T23:22:02.642Z,10.30
2018-09-05T23:24:28.683Z,12.10
2018-09-05T23:26:54.667Z,13.37
2018-09-05T23:29:21.434Z,13.77
2018-09-05T23:31:47.476Z,11.40
2018-09-05T23:34:13.605Z,12.27
2018-09-05T23:36:39.616Z,11.30
2018-09-05T23:39:06.341Z,13.43
2018-09-05T23:41:32.400Z,13.37
2018-09-05T23:43:58.443Z,15.73
2018-09-05T23:46:24.468Z,13.27
2018-09-05T23:48:50.494Z,11.63
2018-09-05T23:51:16.526Z,11.50
2018-09-05T23:53:42.517Z,13.80
2018-09-05T23:56:08.564Z,16.93
2018-09-05T23:58:34.566Z,14.93
